Time;durP1;ratioP1;P1;durP2;ratioP2;P2;SDS_P1;SDS_P2;PMS_P1;PMS_P2;Temp;Humidity;BMP_temperature;BMP_pressure;BME280_temperature;BME280_humidity;BME280_pressure;Samples;Min_cycle;Max_cycle;Signal;HPM_P1;HPM_P2
2021/04/01 00:00:46;;;;;;;38.57;24.17;;;;;;;;;;5076626;28;20461;-52
2021/04/01 00:03:13;;;;;;;44.10;28.80;;;;;;;;;;5076864;28;20453;-57
2021/04/01 00:05:51;;;;;;;46.77;34.90;;;;;;;;;;5076905;28;20465;-55
2021/04/01 00:08:18;;;;;;;21.77;14.90;;;;;;;;;;5076715;28;20457;-52
2021/04/01 00:10:46;;;;;;;34.87;9.30;;;;;;;;;;5076895;28;20440;-50
2021/04/01 00:13:13;;;;;;;11.00;7.20;;;;;;;;;;5076774;28;20465;-55
2021/04/01 00:15:42;;;;;;;11.20;7.03;;;;;;;;;;5076719;28;20449;-53
2021/04/01 00:18:09;;;;;;;11.47;5.87;;;;;;;;;;5077026;28;20468;-54
2021/04/01 00:20:36;;;;;;;15.10;7.37;;;;;;;;;;5076834;28;20449;-45
2021/04/01 00:23:06;;;;;;;17.00;9.03;;;;;;;;;;5090033;28;20455;-45
2021/04/01 00:25:40;;;;;;;12.80;6.90;;;;;;;;;;5096953;28;20440;-49
2021/04/01 00:28:07;;;;;;;9.90;6.17;;;;;;;;;;5094605;28;20488;-53
2021/04/01 00:30:33;;;;;;;12.70;7.30;;;;;;;;;;5096566;28;20444;-54
2021/04/01 00:33:00;;;;;;;15.83;7.40;;;;;;;;;;5096303;28;20452;-53
2021/04/01 00:35:27;;;;;;;8.30;5.80;;;;;;;;;;5095914;28;20505;-54
2021/04/01 00:38:00;;;;;;;15.63;6.20;;;;;;;;;;5096400;28;20436;-55
2021/04/01 00:40:28;;;;;;;15.43;7.00;;;;;;;;;;5095948;28;20668;-55
2021/04/01 00:42:54;;;;;;;16.43;7.50;;;;;;;;;;5095616;28;20498;-56
2021/04/01 00:45:26;;;;;;;12.43;6.67;;;;;;;;;;5095927;28;20456;-57
2021/04/01 00:47:54;;;;;;;12.43;7.23;;;;;;;;;;5094267;28;20488;-51
2021/04/01 00:50:21;;;;;;;15.10;7.27;;;;;;;;;;5096231;28;20491;-55
2021/04/01 00:53:00;;;;;;;12.20;7.50;;;;;;;;;;5096414;28;20444;-54
2021/04/01 00:55:28;;;;;;;15.80;7.13;;;;;;;;;;5096935;28;20460;-51
2021/04/01 00:57:57;;;;;;;15.90;7.27;;;;;;;;;;5096749;28;20452;-56
2021/04/01 01:01:01;;;;;;;15.87;6.77;;;;;;;;;;5096463;28;20449;-55
2021/04/01 01:03:28;;;;;;;16.60;7.87;;;;;;;;;;5076765;28;20464;-51
2021/04/01 01:05:54;;;;;;;12.87;8.40;;;;;;;;;;5085698;28;20491;-49
2021/04/01 01:08:21;;;;;;;10.50;6.40;;;;;;;;;;5083268;28;20518;-49
2021/04/01 01:10:51;;;;;;;10.40;5.87;;;;;;;;;;5076740;28;20441;-53
2021/04/01 01:13:21;;;;;;;14.17;6.10;;;;;;;;;;5076331;28;20433;-59
2021/04/01 01:15:48;;;;;;;13.00;7.53;;;;;;;;;;5095372;28;20467;-52
2021/04/01 01:18:18;;;;;;;13.90;6.83;;;;;;;;;;5096121;28;20444;-57
2021/04/01 01:20:45;;;;;;;9.53;7.03;;;;;;;;;;5095943;28;20440;-48
2021/04/01 01:23:13;;;;;;;14.70;7.07;;;;;;;;;;5095964;28;20459;-54
2021/04/01 01:25:43;;;;;;;12.53;7.80;;;;;;;;;;5095772;28;20443;-58
2021/04/01 01:28:25;;;;;;;13.60;6.90;;;;;;;;;;5095861;28;20439;-55
2021/04/01 01:30:51;;;;;;;12.27;7.87;;;;;;;;;;5095375;28;20460;-56
2021/04/01 01:33:19;;;;;;;14.77;8.33;;;;;;;;;;5095574;28;20482;-56
2021/04/01 01:35:49;;;;;;;20.53;10.90;;;;;;;;;;5095611;28;20523;-49
2021/04/01 01:38:16;;;;;;;30.70;21.40;;;;;;;;;;5095155;28;20471;-54
2021/04/01 01:40:44;;;;;;;15.73;9.10;;;;;;;;;;5096213;28;20454;-54
2021/04/01 01:43:17;;;;;;;20.30;8.10;;;;;;;;;;5095349;28;20440;-54
2021/04/01 01:45:44;;;;;;;14.03;6.70;;;;;;;;;;5095093;28;20476;-56
2021/04/01 01:48:11;;;;;;;9.97;5.90;;;;;;;;;;5095413;28;20914;-50
2021/04/01 01:51:04;;;;;;;13.30;7.23;;;;;;;;;;5095038;28;20451;-56
2021/04/01 01:53:31;;;;;;;14.23;6.87;;;;;;;;;;5094731;28;20452;-49
2021/04/01 01:55:58;;;;;;;17.50;7.40;;;;;;;;;;5095421;28;20538;-58
2021/04/01 01:58:35;;;;;;;11.27;6.80;;;;;;;;;;5095938;28;20421;-53
2021/04/01 02:01:03;;;;;;;12.93;7.80;;;;;;;;;;5095619;28;20471;-55
2021/04/01 02:03:29;;;;;;;12.00;7.93;;;;;;;;;;5095185;28;20551;-51
2021/04/01 02:05:58;;;;;;;12.73;7.70;;;;;;;;;;5094638;28;20542;-54
2021/04/01 02:08:25;;;;;;;14.80;7.07;;;;;;;;;;5095307;28;20470;-53
2021/04/01 02:10:52;;;;;;;10.90;6.80;;;;;;;;;;5095651;28;20459;-53
2021/04/01 02:13:39;;;;;;;12.73;7.90;;;;;;;;;;5095132;28;20428;-46
2021/04/01 02:16:07;;;;;;;12.57;7.50;;;;;;;;;;5094590;28;20470;-59
2021/04/01 02:18:33;;;;;;;20.97;7.13;;;;;;;;;;5095013;28;20455;-54
2021/04/01 02:21:21;;;;;;;17.80;7.30;;;;;;;;;;5094990;28;20444;-57
2021/04/01 02:23:48;;;;;;;14.03;7.67;;;;;;;;;;5095153;28;20468;-50
2021/04/01 02:26:15;;;;;;;12.03;7.30;;;;;;;;;;5094379;28;20551;-48
2021/04/01 02:28:53;;;;;;;14.67;7.93;;;;;;;;;;5094244;28;20527;-58
2021/04/01 02:31:21;;;;;;;11.53;8.10;;;;;;;;;;5094533;28;20475;-52
2021/04/01 02:33:52;;;;;;;14.40;7.60;;;;;;;;;;5094612;28;20541;-54
2021/04/01 02:36:20;;;;;;;15.80;8.00;;;;;;;;;;5095300;28;20460;-51
2021/04/01 02:38:49;;;;;;;14.67;7.37;;;;;;;;;;5094593;28;20463;-49
2021/04/01 02:41:15;;;;;;;20.53;7.60;;;;;;;;;;5095131;28;20455;-59
2021/04/01 02:44:15;;;;;;;15.13;7.63;;;;;;;;;;5094887;28;20447;-55
2021/04/01 02:46:42;;;;;;;11.70;7.13;;;;;;;;;;5094899;28;20463;-53
2021/04/01 02:49:09;;;;;;;12.60;7.87;;;;;;;;;;5082286;28;20480;-57
2021/04/01 02:51:50;;;;;;;12.60;7.17;;;;;;;;;;5074991;28;20449;-52
2021/04/01 02:54:17;;;;;;;16.40;8.47;;;;;;;;;;5074798;28;20448;-55
2021/04/01 02:56:44;;;;;;;12.60;7.53;;;;;;;;;;5075165;28;20453;-51
2021/04/01 02:59:46;;;;;;;14.90;8.67;;;;;;;;;;5074715;28;20485;-59
2021/04/01 03:02:14;;;;;;;13.57;7.60;;;;;;;;;;5104473;28;20499;-52
2021/04/01 03:04:41;;;;;;;16.53;9.67;;;;;;;;;;5115370;28;20556;-48
2021/04/01 03:07:16;;;;;;;14.90;9.40;;;;;;;;;;5118835;28;20443;-58
2021/04/01 03:09:43;;;;;;;9.80;7.50;;;;;;;;;;5118115;28;20485;-56
2021/04/01 03:12:10;;;;;;;15.03;8.83;;;;;;;;;;5118928;28;20440;-55
2021/04/01 03:14:41;;;;;;;13.17;7.70;;;;;;;;;;5118901;28;20458;-58
2021/04/01 03:17:12;;;;;;;10.73;7.40;;;;;;;;;;5118684;28;20486;-55
2021/04/01 03:19:42;;;;;;;11.53;6.80;;;;;;;;;;5119510;28;20435;-50
2021/04/01 03:22:18;;;;;;;18.17;6.60;;;;;;;;;;5118576;28;20463;-55
2021/04/01 03:24:46;;;;;;;15.13;7.60;;;;;;;;;;5118341;28;20446;-50
2021/04/01 03:27:14;;;;;;;17.37;9.03;;;;;;;;;;5105656;28;20515;-49
2021/04/01 03:29:44;;;;;;;13.97;7.30;;;;;;;;;;5116828;28;20471;-55
2021/04/01 03:32:30;;;;;;;13.37;8.03;;;;;;;;;;5119600;28;20443;-57
2021/04/01 03:35:26;;;;;;;15.07;7.43;;;;;;;;;;5119440;28;20462;-51
2021/04/01 03:37:56;;;;;;;12.43;8.13;;;;;;;;;;5118441;28;20470;-56
2021/04/01 03:40:23;;;;;;;15.70;7.80;;;;;;;;;;5126895;28;20458;-53
2021/04/01 03:45:55;;;;;;;15.03;8.20;;;;;;;;;;5122421;28;20499;-55
2021/04/01 03:48:22;;;;;;;10.07;7.43;;;;;;;;;;5139341;28;20474;-54
2021/04/01 03:53:54;;;;;;;14.00;8.43;;;;;;;;;;5123181;28;20516;-56
2021/04/01 03:56:21;;;;;;;15.47;8.43;;;;;;;;;;5117453;28;20450;-47
2021/04/01 03:59:08;;;;;;;15.70;8.63;;;;;;;;;;5118181;28;20492;-55
2021/04/01 04:02:07;;;;;;;23.10;9.17;;;;;;;;;;5118152;28;20485;-53
2021/04/01 04:04:46;;;;;;;11.90;8.47;;;;;;;;;;5117393;28;20471;-58
2021/04/01 04:07:36;;;;;;;10.20;6.90;;;;;;;;;;5117368;28;20428;-53
2021/04/01 04:13:05;;;;;;;13.70;8.47;;;;;;;;;;5102928;28;20440;-55
2021/04/01 04:15:37;;;;;;;12.63;7.60;;;;;;;;;;5096497;28;20455;-49
2021/04/01 04:18:03;;;;;;;15.37;8.27;;;;;;;;;;5097119;28;20507;-52
2021/04/01 04:20:31;;;;;;;13.30;8.17;;;;;;;;;;5116908;28;20451;-58
2021/04/01 04:22:58;;;;;;;11.30;8.30;;;;;;;;;;5117492;28;20485;-54
2021/04/01 04:25:26;;;;;;;14.70;9.67;;;;;;;;;;5116874;28;20435;-54
2021/04/01 04:28:30;;;;;;;19.83;8.70;;;;;;;;;;5117458;28;20926;-58
2021/04/01 04:31:01;;;;;;;13.50;8.67;;;;;;;;;;5117110;28;20513;-53
2021/04/01 04:33:35;;;;;;;14.77;8.43;;;;;;;;;;5117210;28;20494;-50
2021/04/01 04:36:02;;;;;;;19.10;9.43;;;;;;;;;;5117066;28;20511;-51
2021/04/01 04:38:29;;;;;;;20.73;8.33;;;;;;;;;;5117470;28;20464;-59
2021/04/01 04:41:00;;;;;;;14.57;8.90;;;;;;;;;;5116729;28;20447;-58
2021/04/01 04:43:27;;;;;;;22.23;8.60;;;;;;;;;;5116832;28;20474;-56
2021/04/01 04:45:54;;;;;;;15.10;8.70;;;;;;;;;;5117883;28;20466;-56
2021/04/01 04:48:29;;;;;;;15.90;8.70;;;;;;;;;;5117119;28;20519;-54
2021/04/01 04:50:56;;;;;;;14.20;8.83;;;;;;;;;;5115374;28;20462;-56
2021/04/01 04:53:25;;;;;;;18.17;9.23;;;;;;;;;;5117204;28;20479;-56
2021/04/01 04:56:01;;;;;;;17.60;8.43;;;;;;;;;;5117118;28;20455;-54
2021/04/01 04:58:34;;;;;;;16.77;8.30;;;;;;;;;;5116654;28;20446;-54
2021/04/01 05:01:13;;;;;;;13.77;8.30;;;;;;;;;;5116837;28;20596;-50
2021/04/01 05:06:53;;;;;;;23.77;10.20;;;;;;;;;;5114202;28;20445;-52
2021/04/01 05:09:20;;;;;;;13.40;8.47;;;;;;;;;;5115373;28;20517;-53
2021/04/01 05:17:44;;;;;;;10.47;7.37;;;;;;;;;;5113944;28;20494;-59
2021/04/01 05:20:16;;;;;;;10.10;7.80;;;;;;;;;;5116046;28;20504;-56
2021/04/01 05:22:46;;;;;;;16.13;8.17;;;;;;;;;;5111001;28;20443;-49
2021/04/01 05:25:22;;;;;;;14.00;9.30;;;;;;;;;;5117565;28;20455;-58
2021/04/01 05:27:51;;;;;;;15.07;8.57;;;;;;;;;;5094905;28;20493;-56
2021/04/01 05:30:43;;;;;;;22.27;10.67;;;;;;;;;;5095413;28;20474;-58
2021/04/01 05:33:15;;;;;;;16.57;9.17;;;;;;;;;;5112620;28;20459;-50
2021/04/01 05:35:44;;;;;;;11.90;7.77;;;;;;;;;;5116281;28;20512;-53
2021/04/01 05:38:19;;;;;;;14.47;8.47;;;;;;;;;;5116013;28;20471;-50
2021/04/01 05:40:46;;;;;;;16.80;8.80;;;;;;;;;;5116033;28;20475;-52
2021/04/01 05:43:27;;;;;;;25.67;11.10;;;;;;;;;;5112410;28;20444;-50
2021/04/01 05:46:21;;;;;;;16.93;8.93;;;;;;;;;;5093860;28;20463;-53
2021/04/01 05:48:58;;;;;;;20.67;10.20;;;;;;;;;;5111766;28;20530;-55
2021/04/01 05:52:08;;;;;;;20.27;9.93;;;;;;;;;;5116263;28;20435;-54
2021/04/01 05:57:48;;;;;;;17.57;9.03;;;;;;;;;;5103550;28;20448;-50
2021/04/01 06:03:31;;;;;;;19.93;9.27;;;;;;;;;;5097531;28;20500;-52
2021/04/01 06:06:00;;;;;;;11.50;8.37;;;;;;;;;;5099753;28;20431;-48
2021/04/01 06:09:05;;;;;;;27.83;10.30;;;;;;;;;;5115504;28;20507;-60
2021/04/01 06:11:32;;;;;;;12.23;9.27;;;;;;;;;;5115194;28;20475;-56
2021/04/01 06:14:09;;;;;;;18.50;8.90;;;;;;;;;;5115596;28;20440;-54
2021/04/01 06:16:41;;;;;;;21.27;9.90;;;;;;;;;;5100392;28;20498;-55
2021/04/01 06:19:10;;;;;;;17.20;10.07;;;;;;;;;;5096070;28;20521;-51
2021/04/01 06:21:42;;;;;;;19.20;9.67;;;;;;;;;;5114783;28;20462;-56
2021/04/01 06:24:22;;;;;;;19.00;9.90;;;;;;;;;;5094882;28;20447;-56
2021/04/01 06:27:01;;;;;;;22.43;11.47;;;;;;;;;;5122157;28;20501;-52
2021/04/01 06:29:34;;;;;;;16.10;9.87;;;;;;;;;;5099141;28;20480;-57
2021/04/01 06:32:02;;;;;;;12.33;9.00;;;;;;;;;;5094952;28;20483;-56
2021/04/01 06:34:34;;;;;;;17.70;9.60;;;;;;;;;;5120432;28;20461;-55
2021/04/01 06:37:02;;;;;;;21.07;10.23;;;;;;;;;;5135661;28;20454;-55
2021/04/01 06:39:55;;;;;;;19.30;10.90;;;;;;;;;;5136487;28;20490;-52
2021/04/01 06:42:27;;;;;;;17.07;10.63;;;;;;;;;;5119526;28;20447;-54
2021/04/01 06:44:55;;;;;;;21.63;10.37;;;;;;;;;;5115174;28;20443;-54
2021/04/01 06:47:28;;;;;;;15.30;10.80;;;;;;;;;;5118012;28;20461;-54
2021/04/01 06:50:06;;;;;;;17.03;10.77;;;;;;;;;;5113646;28;20580;-58
2021/04/01 06:52:38;;;;;;;17.23;10.67;;;;;;;;;;5118017;28;20468;-56
2021/04/01 06:55:26;;;;;;;21.20;10.50;;;;;;;;;;5117093;28;20489;-52
2021/04/01 07:00:56;;;;;;;13.83;9.47;;;;;;;;;;5117038;28;20485;-52
2021/04/01 07:03:27;;;;;;;24.07;10.63;;;;;;;;;;5115900;28;20542;-51
2021/04/01 07:09:06;;;;;;;15.77;10.90;;;;;;;;;;5113751;28;20476;-56
2021/04/01 07:11:43;;;;;;;19.33;10.40;;;;;;;;;;5117252;28;20474;-56
2021/04/01 07:14:35;;;;;;;21.87;10.60;;;;;;;;;;5111037;28;20465;-52
2021/04/01 07:17:10;;;;;;;16.07;11.83;;;;;;;;;;5117497;28;20458;-55
2021/04/01 07:20:16;;;;;;;19.10;12.57;;;;;;;;;;5116883;28;20447;-53
2021/04/01 07:34:52;;;;;;;17.67;11.60;;;;;;;;;;5076408;28;20433;-53
2021/04/01 07:46:32;;;;;;;27.87;14.37;;;;;;;;;;5118125;28;20462;-55
2021/04/01 07:49:31;;;;;;;22.60;14.23;;;;;;;;;;5117292;28;20455;-55
2021/04/01 07:52:08;;;;;;;24.50;14.40;;;;;;;;;;5115428;28;20431;-52
2021/04/01 07:54:42;;;;;;;31.13;14.63;;;;;;;;;;5117062;28;20548;-58
2021/04/01 07:57:38;;;;;;;30.87;16.77;;;;;;;;;;5117516;28;20447;-59
2021/04/01 08:00:21;;;;;;;24.13;13.93;;;;;;;;;;5116644;28;20451;-54
2021/04/01 08:05:52;;;;;;;24.40;14.80;;;;;;;;;;5117120;28;20414;-55
2021/04/01 08:08:20;;;;;;;27.07;16.10;;;;;;;;;;5117010;28;20494;-55
2021/04/01 08:10:49;;;;;;;27.87;17.50;;;;;;;;;;5116022;28;20471;-58
2021/04/01 08:13:22;;;;;;;29.53;19.50;;;;;;;;;;5116456;28;20436;-60
2021/04/01 08:15:53;;;;;;;38.67;22.07;;;;;;;;;;5115747;28;20462;-55
2021/04/01 08:18:25;;;;;;;34.90;21.57;;;;;;;;;;5115864;28;20447;-54
2021/04/01 08:20:58;;;;;;;38.07;23.93;;;;;;;;;;5116689;28;20455;-56
2021/04/01 08:23:31;;;;;;;58.13;26.33;;;;;;;;;;5115892;28;20459;-54
2021/04/01 08:26:21;;;;;;;50.43;28.00;;;;;;;;;;5115209;28;20534;-64
2021/04/01 08:29:04;;;;;;;50.87;29.20;;;;;;;;;;5114595;28;20443;-53
2021/04/01 08:31:51;;;;;;;52.90;29.77;;;;;;;;;;5109850;28;20495;-58
2021/04/01 08:34:39;;;;;;;39.80;25.57;;;;;;;;;;5096183;28;20436;-57
2021/04/01 08:37:06;;;;;;;59.40;31.17;;;;;;;;;;5111907;28;20474;-54
2021/04/01 08:39:38;;;;;;;68.03;33.27;;;;;;;;;;5116263;28;20446;-56
2021/04/01 08:42:44;;;;;;;67.30;32.77;;;;;;;;;;5114367;28;20547;-56
2021/04/01 08:51:52;;;;;;;61.10;33.57;;;;;;;;;;5116097;27;20435;-50
2021/04/01 08:54:22;;;;;;;58.67;31.33;;;;;;;;;;5096674;28;20443;-52
2021/04/01 09:02:47;;;;;;;58.53;31.47;;;;;;;;;;5113036;28;20477;-53
2021/04/01 09:05:15;;;;;;;63.07;32.47;;;;;;;;;;5116059;28;20430;-53
2021/04/01 09:07:45;;;;;;;61.97;34.87;;;;;;;;;;5115764;28;20451;-56
2021/04/01 09:10:16;;;;;;;67.77;34.03;;;;;;;;;;5106670;28;20513;-50
2021/04/01 09:12:45;;;;;;;56.17;30.83;;;;;;;;;;5112563;28;20481;-55
2021/04/01 09:15:19;;;;;;;55.83;30.30;;;;;;;;;;5115857;28;20466;-52
2021/04/01 09:17:46;;;;;;;64.47;31.77;;;;;;;;;;5113999;28;20451;-54
2021/04/01 09:20:15;;;;;;;64.03;35.17;;;;;;;;;;5115948;28;20435;-56
2021/04/01 09:22:45;;;;;;;56.10;31.37;;;;;;;;;;5114378;28;20569;-58
2021/04/01 09:25:48;;;;;;;58.07;31.87;;;;;;;;;;5115871;28;20624;-53
2021/04/01 09:28:31;;;;;;;58.80;31.47;;;;;;;;;;5114373;28;20549;-55
2021/04/01 09:30:59;;;;;;;57.13;30.47;;;;;;;;;;5114469;28;20490;-58
2021/04/01 09:33:29;;;;;;;59.63;34.10;;;;;;;;;;5114572;28;20448;-55
2021/04/01 09:36:14;;;;;;;66.00;31.30;;;;;;;;;;5114592;28;20485;-52
2021/04/01 09:38:43;;;;;;;57.33;32.93;;;;;;;;;;5107286;28;20451;-59
2021/04/01 09:41:10;;;;;;;65.27;32.23;;;;;;;;;;5093620;28;20486;-49
2021/04/01 09:43:55;;;;;;;62.97;32.30;;;;;;;;;;5098321;28;20475;-57
2021/04/01 09:46:23;;;;;;;80.40;39.10;;;;;;;;;;5113605;28;20485;-58
2021/04/01 09:48:55;;;;;;;63.27;33.27;;;;;;;;;;5097493;28;20421;-53
2021/04/01 09:51:22;;;;;;;70.17;34.33;;;;;;;;;;5113382;28;20431;-52
2021/04/01 09:53:53;;;;;;;66.97;31.77;;;;;;;;;;5112978;28;20459;-53
2021/04/01 09:56:25;;;;;;;64.47;33.17;;;;;;;;;;5114113;28;20475;-56
2021/04/01 09:59:13;;;;;;;55.17;31.27;;;;;;;;;;5115831;28;20485;-58
2021/04/01 10:01:43;;;;;;;64.30;32.67;;;;;;;;;;5114061;28;20447;-54
2021/04/01 10:04:14;;;;;;;65.27;32.60;;;;;;;;;;5104711;28;20469;-54
2021/04/01 10:06:49;;;;;;;66.33;34.43;;;;;;;;;;5113401;28;20466;-53
2021/04/01 10:09:17;;;;;;;56.27;33.30;;;;;;;;;;5114210;28;20466;-51
2021/04/01 10:11:49;;;;;;;71.27;33.97;;;;;;;;;;5114158;28;20491;-51
2021/04/01 10:14:35;;;;;;;74.47;34.20;;;;;;;;;;5112818;28;20443;-58
2021/04/01 10:17:04;;;;;;;63.93;34.10;;;;;;;;;;5111067;28;20494;-58
2021/04/01 10:19:34;;;;;;;68.17;34.30;;;;;;;;;;5109358;28;20456;-54
2021/04/01 10:22:13;;;;;;;61.53;34.30;;;;;;;;;;5092875;28;20543;-60
2021/04/01 10:24:40;;;;;;;66.37;35.43;;;;;;;;;;5093294;28;20447;-55
2021/04/01 10:27:13;;;;;;;60.53;32.37;;;;;;;;;;5102343;28;20447;-59
2021/04/01 10:29:59;;;;;;;62.57;34.30;;;;;;;;;;5110161;28;20490;-51
2021/04/01 10:32:33;;;;;;;57.23;31.77;;;;;;;;;;5112468;28;20458;-56
2021/04/01 10:35:21;;;;;;;56.57;29.23;;;;;;;;;;5113572;28;20423;-53
2021/04/01 10:37:54;;;;;;;61.67;35.20;;;;;;;;;;5109006;28;20443;-54
2021/04/01 10:40:37;;;;;;;58.77;31.73;;;;;;;;;;5113127;28;20443;-58
2021/04/01 10:43:05;;;;;;;62.23;31.43;;;;;;;;;;5113620;28;20446;-56
2021/04/01 10:45:35;;;;;;;59.13;29.40;;;;;;;;;;5112691;28;20524;-53
2021/04/01 10:48:26;;;;;;;50.70;28.13;;;;;;;;;;5113167;28;20506;-54
2021/04/01 10:50:57;;;;;;;56.30;27.83;;;;;;;;;;5110580;28;20509;-55
2021/04/01 10:53:25;;;;;;;61.00;30.13;;;;;;;;;;5112610;28;20451;-54
2021/04/01 10:56:04;;;;;;;51.90;26.57;;;;;;;;;;5113169;28;20486;-51
2021/04/01 10:59:02;;;;;;;50.60;28.67;;;;;;;;;;5113862;28;20454;-58
2021/04/01 11:01:51;;;;;;;54.07;28.20;;;;;;;;;;5109529;28;20459;-56
2021/04/01 11:04:18;;;;;;;53.90;25.80;;;;;;;;;;5092257;28;20452;-55
2021/04/01 11:06:49;;;;;;;56.90;28.43;;;;;;;;;;5092151;28;20440;-52
2021/04/01 11:09:35;;;;;;;53.03;27.10;;;;;;;;;;5092272;28;20456;-51
2021/04/01 11:12:15;;;;;;;48.17;26.50;;;;;;;;;;5092414;28;20459;-53
2021/04/01 11:14:45;;;;;;;49.57;24.90;;;;;;;;;;5092245;28;20495;-56
2021/04/01 11:17:17;;;;;;;49.23;25.23;;;;;;;;;;5112573;28;20704;-56
2021/04/01 11:20:15;;;;;;;50.33;24.77;;;;;;;;;;5109072;28;20459;-54
2021/04/01 11:22:57;;;;;;;53.37;27.07;;;;;;;;;;5108922;28;20447;-54
2021/04/01 11:25:28;;;;;;;46.40;24.53;;;;;;;;;;5113454;28;20427;-57
2021/04/01 11:27:56;;;;;;;55.13;26.97;;;;;;;;;;5116328;28;20447;-54
2021/04/01 11:30:23;;;;;;;52.50;26.50;;;;;;;;;;5114473;28;20497;-53
2021/04/01 11:32:52;;;;;;;48.70;26.47;;;;;;;;;;5115129;28;20528;-50
2021/04/01 11:35:43;;;;;;;42.83;23.90;;;;;;;;;;5114962;28;20720;-56
2021/04/01 11:38:23;;;;;;;46.23;25.90;;;;;;;;;;5110792;28;20505;-54
2021/04/01 11:41:00;;;;;;;49.30;26.60;;;;;;;;;;5110783;28;20459;-55
2021/04/01 11:43:30;;;;;;;48.30;26.57;;;;;;;;;;5108216;28;20461;-59
2021/04/01 11:46:12;;;;;;;47.87;25.67;;;;;;;;;;5119104;28;20497;-55
2021/04/01 11:48:41;;;;;;;70.47;32.53;;;;;;;;;;5118815;28;20451;-56
2021/04/01 11:51:16;;;;;;;58.07;28.00;;;;;;;;;;5114814;28;20486;-64
2021/04/01 11:53:50;;;;;;;48.63;25.17;;;;;;;;;;5115986;28;20496;-55
2021/04/01 11:56:19;;;;;;;47.77;24.90;;;;;;;;;;5111236;28;20489;-58
2021/04/01 11:58:47;;;;;;;61.10;26.70;;;;;;;;;;5115239;28;20517;-55
2021/04/01 12:01:45;;;;;;;55.03;25.40;;;;;;;;;;5115782;28;20448;-55
2021/04/01 12:04:25;;;;;;;51.57;25.43;;;;;;;;;;5114186;28;20489;-56
2021/04/01 12:06:58;;;;;;;53.90;24.77;;;;;;;;;;5114161;28;20419;-55
2021/04/01 12:09:26;;;;;;;54.60;23.87;;;;;;;;;;5114294;28;20522;-56
2021/04/01 12:11:54;;;;;;;57.93;26.70;;;;;;;;;;5109956;28;20509;-56
2021/04/01 12:14:35;;;;;;;60.77;26.80;;;;;;;;;;5115485;28;20447;-55
2021/04/01 12:17:05;;;;;;;72.07;24.57;;;;;;;;;;5112250;28;20593;-58
2021/04/01 12:19:33;;;;;;;57.13;23.83;;;;;;;;;;5110945;28;20526;-55
2021/04/01 12:22:05;;;;;;;56.07;24.40;;;;;;;;;;5114279;28;20512;-55
2021/04/01 12:24:33;;;;;;;53.90;24.77;;;;;;;;;;5114151;28;20462;-54
2021/04/01 12:27:24;;;;;;;53.90;24.73;;;;;;;;;;5115551;28;20474;-54
2021/04/01 12:30:50;;;;;;;51.80;23.70;;;;;;;;;;5106930;28;20475;-55
2021/04/01 12:33:18;;;;;;;51.17;25.47;;;;;;;;;;5111311;28;20471;-57
2021/04/01 12:35:52;;;;;;;50.07;23.63;;;;;;;;;;5097332;28;20452;-58
2021/04/01 12:38:38;;;;;;;46.30;22.67;;;;;;;;;;5108392;28;20459;-59
2021/04/01 12:41:07;;;;;;;44.73;22.43;;;;;;;;;;5115193;28;20436;-56
2021/04/01 12:43:35;;;;;;;51.23;25.07;;;;;;;;;;5114143;28;20474;-60
2021/04/01 12:46:06;;;;;;;49.70;23.63;;;;;;;;;;5105657;28;20456;-55
2021/04/01 12:48:47;;;;;;;50.70;22.00;;;;;;;;;;5115170;28;20443;-58
2021/04/01 12:51:34;;;;;;;50.53;25.33;;;;;;;;;;5114168;28;20536;-59
2021/04/01 12:54:32;;;;;;;49.43;21.93;;;;;;;;;;5111563;28;20455;-54
2021/04/01 12:57:24;;;;;;;44.13;22.53;;;;;;;;;;5113419;28;20452;-58
2021/04/01 12:59:57;;;;;;;45.33;20.20;;;;;;;;;;5093055;28;20502;-50
2021/04/01 13:02:25;;;;;;;47.57;23.43;;;;;;;;;;5111935;28;20467;-52
2021/04/01 13:05:29;;;;;;;50.70;24.23;;;;;;;;;;5113645;28;20459;-51
2021/04/01 13:08:19;;;;;;;42.83;18.57;;;;;;;;;;5112717;28;20463;-55
2021/04/01 13:11:00;;;;;;;42.03;21.70;;;;;;;;;;5098925;28;20531;-55
2021/04/01 13:13:28;;;;;;;57.03;24.63;;;;;;;;;;5112101;28;20463;-57
2021/04/01 13:15:55;;;;;;;48.10;24.20;;;;;;;;;;5113596;28;20495;-53
2021/04/01 13:18:22;;;;;;;61.03;29.50;;;;;;;;;;5113990;28;20443;-54
2021/04/01 13:20:49;;;;;;;71.47;32.43;;;;;;;;;;5113768;28;20427;-56
2021/04/01 13:23:32;;;;;;;70.37;32.30;;;;;;;;;;5115226;28;20460;-56
2021/04/01 13:26:18;;;;;;;63.30;31.27;;;;;;;;;;5113821;28;20529;-56
2021/04/01 13:28:46;;;;;;;69.80;32.67;;;;;;;;;;5115275;28;20451;-51
2021/04/01 13:31:24;;;;;;;53.83;27.07;;;;;;;;;;5114107;28;20582;-54
2021/04/01 13:37:01;;;;;;;54.27;28.77;;;;;;;;;;5112893;28;20536;-60
2021/04/01 13:39:37;;;;;;;62.13;31.87;;;;;;;;;;5114935;28;20534;-54
2021/04/01 13:42:20;;;;;;;65.13;32.93;;;;;;;;;;5109305;28;20459;-60
2021/04/01 13:44:51;;;;;;;56.37;30.63;;;;;;;;;;5102161;28;20466;-57
2021/04/01 13:47:22;;;;;;;71.43;37.13;;;;;;;;;;5112933;28;20451;-54
2021/04/01 13:50:11;;;;;;;64.37;38.07;;;;;;;;;;5111196;28;20471;-56
2021/04/01 13:55:43;;;;;;;62.63;36.77;;;;;;;;;;5115316;28;20519;-53
2021/04/01 13:58:21;;;;;;;70.90;42.57;;;;;;;;;;5112131;28;20478;-56
2021/04/01 14:01:03;;;;;;;83.03;46.13;;;;;;;;;;5090632;28;20448;-58
2021/04/01 14:03:55;;;;;;;85.27;45.57;;;;;;;;;;5093326;28;20484;-52
2021/04/01 14:09:46;;;;;;;83.67;46.90;;;;;;;;;;5113482;28;20665;-54
2021/04/01 14:12:18;;;;;;;82.60;47.70;;;;;;;;;;5111712;28;20481;-56
2021/04/01 14:14:48;;;;;;;86.63;46.77;;;;;;;;;;5113802;28;20480;-50
2021/04/01 14:17:21;;;;;;;87.10;49.10;;;;;;;;;;5108829;28;20441;-57
2021/04/01 14:19:52;;;;;;;89.57;48.97;;;;;;;;;;5113108;28;20427;-59
2021/04/01 14:22:20;;;;;;;84.57;50.47;;;;;;;;;;5114017;28;20455;-50
2021/04/01 14:24:51;;;;;;;91.33;50.37;;;;;;;;;;5113110;28;20455;-55
2021/04/01 14:27:29;;;;;;;90.93;52.87;;;;;;;;;;5113590;28;20454;-58
2021/04/01 14:30:23;;;;;;;84.33;50.73;;;;;;;;;;5113346;28;20490;-56
2021/04/01 14:32:54;;;;;;;78.53;50.77;;;;;;;;;;5107040;28;20463;-54
2021/04/01 14:35:26;;;;;;;89.67;55.27;;;;;;;;;;5109261;28;20454;-58
2021/04/01 14:38:30;;;;;;;89.67;52.10;;;;;;;;;;5106397;28;20440;-59
2021/04/01 14:41:06;;;;;;;94.73;53.93;;;;;;;;;;5105949;28;20465;-55
2021/04/01 14:43:47;;;;;;;87.40;51.57;;;;;;;;;;5113764;28;20492;-53
2021/04/01 14:49:44;;;;;;;76.57;45.93;;;;;;;;;;5113787;28;20773;-50
2021/04/01 14:52:19;;;;;;;83.93;49.23;;;;;;;;;;5114064;28;20447;-54
2021/04/01 14:54:49;;;;;;;84.37;45.97;;;;;;;;;;5113496;28;20443;-55
2021/04/01 14:57:21;;;;;;;84.43;49.27;;;;;;;;;;5100089;28;20494;-55
2021/04/01 14:59:53;;;;;;;73.97;45.97;;;;;;;;;;5107640;28;20452;-53
2021/04/01 15:02:37;;;;;;;68.83;45.37;;;;;;;;;;5112921;28;20630;-55
2021/04/01 15:05:05;;;;;;;66.77;41.13;;;;;;;;;;5117364;28;20761;-56
2021/04/01 15:07:37;;;;;;;59.47;39.60;;;;;;;;;;5099151;28;20475;-60
2021/04/01 15:13:49;;;;;;;51.53;30.60;;;;;;;;;;5100914;28;20440;-59
2021/04/01 15:17:07;;;;;;;37.60;25.63;;;;;;;;;;5113258;28;20502;-60
2021/04/01 15:19:40;;;;;;;34.07;22.03;;;;;;;;;;5098634;28;20444;-52
2021/04/01 15:22:10;;;;;;;30.20;19.60;;;;;;;;;;5119041;28;20499;-56
2021/04/01 15:24:56;;;;;;;32.40;17.70;;;;;;;;;;5118047;28;20463;-56
2021/04/01 15:28:01;;;;;;;32.33;17.77;;;;;;;;;;5114687;28;20454;-54
2021/04/01 15:31:01;;;;;;;26.93;15.40;;;;;;;;;;5116270;28;20497;-56
2021/04/01 15:33:31;;;;;;;34.17;16.40;;;;;;;;;;5105851;28;20510;-55
2021/04/01 15:36:03;;;;;;;23.40;13.47;;;;;;;;;;5118074;28;20443;-55
2021/04/01 15:38:39;;;;;;;24.30;13.43;;;;;;;;;;5118259;28;20458;-57
2021/04/01 15:41:49;;;;;;;18.17;11.10;;;;;;;;;;5116943;28;20455;-59
2021/04/01 15:44:17;;;;;;;22.30;11.67;;;;;;;;;;5098309;28;20587;-55
2021/04/01 15:47:06;;;;;;;20.47;10.50;;;;;;;;;;5094911;28;20503;-60
2021/04/01 15:49:34;;;;;;;18.90;9.87;;;;;;;;;;5097787;28;20460;-57
2021/04/01 15:52:01;;;;;;;17.13;10.90;;;;;;;;;;5095576;28;20755;-49
2021/04/01 15:54:30;;;;;;;21.67;10.80;;;;;;;;;;5097143;28;20469;-52
2021/04/01 15:56:57;;;;;;;15.10;10.10;;;;;;;;;;5097098;28;20431;-54
2021/04/01 15:59:50;;;;;;;17.63;8.87;;;;;;;;;;5096780;28;20460;-53
2021/04/01 16:02:20;;;;;;;16.70;8.07;;;;;;;;;;5096577;28;20467;-56
2021/04/01 16:04:52;;;;;;;13.67;7.57;;;;;;;;;;5097691;28;20463;-55
2021/04/01 16:07:29;;;;;;;17.00;8.43;;;;;;;;;;5106266;28;20474;-47
2021/04/01 16:09:57;;;;;;;17.67;7.90;;;;;;;;;;5093484;28;20494;-51
2021/04/01 16:12:24;;;;;;;17.80;7.63;;;;;;;;;;5094750;28;20452;-51
2021/04/01 16:15:11;;;;;;;10.00;5.27;;;;;;;;;;5095248;28;20471;-53
2021/04/01 16:18:03;;;;;;;16.00;5.43;;;;;;;;;;5096685;28;20533;-58
2021/04/01 16:24:06;;;;;;;12.83;5.87;;;;;;;;;;5097298;28;20446;-53
2021/04/01 16:26:59;;;;;;;14.87;5.20;;;;;;;;;;5097578;28;20427;-60
2021/04/01 16:29:55;;;;;;;14.40;5.47;;;;;;;;;;5092503;28;20491;-59
2021/04/01 16:32:29;;;;;;;23.80;8.07;;;;;;;;;;5080326;28;20436;-57
2021/04/01 16:35:06;;;;;;;9.80;5.10;;;;;;;;;;5097520;28;20513;-53
2021/04/01 16:38:09;;;;;;;10.13;5.40;;;;;;;;;;5097191;28;20474;-55